Time;durP1;ratioP1;P1;durP2;ratioP2;P2;SDS_P1;SDS_P2;PMS_P1;PMS_P2;Temp;Humidity;BMP_temperature;BMP_pressure;BME280_temperature;BME280_humidity;BME280_pressure;Samples;Min_cycle;Max_cycle;Signal;HPM_P1;HPM_P2
2023/05/01 00:01:11;;;;;;;;;;;;;;;3.02;69.92;101092.25;104615;278;104216;-53
2023/05/01 00:03:43;;;;;;;;;;;;;;;3.05;69.90;101088.14;104591;277;114428;-53
2023/05/01 00:06:15;;;;;;;;;;;;;;;3.02;69.98;101091.53;104130;277;92762;-55
2023/05/01 00:08:48;;;;;;;;;;;;;;;3.01;70.00;101097.16;104136;273;97859;-55
2023/05/01 00:11:20;;;;;;;;;;;;;;;2.96;70.03;101089.84;104135;277;121653;-54
2023/05/01 00:13:53;;;;;;;;;;;;;;;2.92;70.15;101092.69;104143;277;106152;-55
2023/05/01 00:16:25;;;;;;;;;;;;;;;2.90;70.17;101098.75;104145;277;114453;-55
2023/05/01 00:18:57;;;;;;;;;;;;;;;2.89;70.09;101095.09;104137;277;93586;-55
2023/05/01 00:21:29;;;;;;;;;;;;;;;2.87;69.87;101096.27;104644;277;97866;-53
2023/05/01 00:24:01;;;;;;;;;;;;;;;2.85;70.06;101094.29;104619;277;122318;-53
2023/05/01 00:26:33;;;;;;;;;;;;;;;2.89;70.06;101094.91;104151;277;105308;-55
2023/05/01 00:29:06;;;;;;;;;;;;;;;2.87;70.10;101093.48;104122;277;115063;-55
2023/05/01 00:31:40;;;;;;;;;;;;;;;2.85;70.20;101097.86;104125;277;93299;-53
2023/05/01 00:34:12;;;;;;;;;;;;;;;2.82;70.21;101099.04;104180;277;96073;-53
2023/05/01 00:36:44;;;;;;;;;;;;;;;2.76;70.34;101099.67;104178;277;122285;-53
2023/05/01 00:39:17;;;;;;;;;;;;;;;2.71;70.43;101096.92;104171;277;105545;-53
2023/05/01 00:41:49;;;;;;;;;;;;;;;2.65;70.58;101097.76;104546;277;114605;-53
2023/05/01 00:44:21;;;;;;;;;;;;;;;2.60;70.61;101090.87;104185;278;92014;-53
2023/05/01 00:46:55;;;;;;;;;;;;;;;2.55;70.69;101095.74;104228;277;97959;-56
2023/05/01 00:49:27;;;;;;;;;;;;;;;2.46;70.80;101095.33;104167;277;121621;-54
2023/05/01 00:52:00;;;;;;;;;;;;;;;2.38;70.94;101100.27;104578;277;105960;-53
2023/05/01 00:54:32;;;;;;;;;;;;;;;2.30;71.19;101102.68;104164;282;113453;-54
2023/05/01 00:57:05;;;;;;;;;;;;;;;2.21;71.27;101101.44;104158;277;94240;-53
2023/05/01 00:59:38;;;;;;;;;;;;;;;2.12;71.32;101105.14;103924;279;97250;-55
2023/05/01 01:02:11;;;;;;;;;;;;;;;2.06;71.59;101101.70;104196;277;121820;-56
2023/05/01 01:04:45;;;;;;;;;;;;;;;2.01;71.81;101106.02;104183;278;106293;-56
2023/05/01 01:07:23;;;;;;;;;;;;;;;1.98;72.15;101102.67;104553;277;113266;-56
2023/05/01 01:10:05;;;;;;;;;;;;;;;1.99;72.23;101102.31;104140;277;94414;-53
2023/05/01 01:12:46;;;;;;;;;;;;;;;1.99;72.27;101103.33;104184;277;97552;-53
2023/05/01 01:15:24;;;;;;;;;;;;;;;2.02;72.43;101099.89;104576;277;121223;-53
2023/05/01 01:18:04;;;;;;;;;;;;;;;2.04;72.56;101100.27;104194;277;104342;-54
2023/05/01 01:20:41;;;;;;;;;;;;;;;2.06;72.77;101097.31;104573;278;114668;-54
2023/05/01 01:23:38;;;;;;;;;;;;;;;2.11;72.79;101100.77;104196;277;94679;-54
2023/05/01 01:26:33;;;;;;;;;;;;;;;2.13;72.92;101097.23;104194;278;96938;-55
2023/05/01 01:29:27;;;;;;;;;;;;;;;2.12;72.94;101098.01;103805;277;478816;-55
2023/05/01 01:32:11;;;;;;;;;;;;;;;2.12;73.13;101095.20;104062;277;105594;-56
2023/05/01 01:34:47;;;;;;;;;;;;;;;2.11;73.18;101099.21;104594;277;114915;-53
2023/05/01 01:37:23;;;;;;;;;;;;;;;2.11;73.15;101106.45;104171;277;93118;-55
2023/05/01 01:40:01;;;;;;;;;;;;;;;2.10;73.04;101103.86;104566;277;97341;-53
2023/05/01 01:42:39;;;;;;;;;;;;;;;2.04;73.01;101105.94;104557;277;121766;-53
2023/05/01 01:45:15;;;;;;;;;;;;;;;1.97;73.05;101105.80;104100;278;105291;-53
2023/05/01 01:47:48;;;;;;;;;;;;;;;1.91;73.05;101107.89;104529;278;114978;-53
2023/05/01 01:50:22;;;;;;;;;;;;;;;1.85;73.17;101109.23;104523;279;93594;-53
2023/05/01 01:52:59;;;;;;;;;;;;;;;1.74;73.32;101113.39;104066;279;96355;-54
2023/05/01 01:55:33;;;;;;;;;;;;;;;1.67;73.41;101116.77;104115;279;120438;-55
2023/05/01 01:58:06;;;;;;;;;;;;;;;1.60;73.57;101121.05;104562;279;105661;-55
2023/05/01 02:00:41;;;;;;;;;;;;;;;1.53;73.65;101113.44;104125;279;112826;-55
2023/05/01 02:03:14;;;;;;;;;;;;;;;1.46;73.72;101112.86;104083;279;92119;-55
2023/05/01 02:05:48;;;;;;;;;;;;;;;1.41;73.73;101110.58;104543;279;95276;-55
2023/05/01 02:08:21;;;;;;;;;;;;;;;1.37;73.75;101114.30;104101;278;120975;-55
2023/05/01 02:10:58;;;;;;;;;;;;;;;1.32;73.84;101112.48;104542;279;104555;-54
2023/05/01 02:13:31;;;;;;;;;;;;;;;1.30;73.96;101113.39;104521;279;113587;-55
2023/05/01 02:16:05;;;;;;;;;;;;;;;1.28;74.16;101109.11;104097;278;96190;-55
2023/05/01 02:18:38;;;;;;;;;;;;;;;1.26;74.29;101111.87;104533;279;96522;-54
2023/05/01 02:21:11;;;;;;;;;;;;;;;1.27;74.38;101110.71;104078;278;121793;-53
2023/05/01 02:23:43;;;;;;;;;;;;;;;1.28;74.69;101108.54;104563;278;105333;-55
2023/05/01 02:26:16;;;;;;;;;;;;;;;1.32;74.59;101112.46;104096;278;113213;-53
2023/05/01 02:28:48;;;;;;;;;;;;;;;1.35;74.61;101115.50;104519;279;95903;-53
2023/05/01 02:31:20;;;;;;;;;;;;;;;1.36;74.70;101115.05;104086;278;98194;-53
2023/05/01 02:33:53;;;;;;;;;;;;;;;1.34;74.72;101116.58;104510;279;121806;-53
2023/05/01 02:36:26;;;;;;;;;;;;;;;1.32;74.88;101118.89;104083;279;104083;-53
2023/05/01 02:38:58;;;;;;;;;;;;;;;1.32;75.02;101118.17;103954;279;113919;-53
2023/05/01 02:41:31;;;;;;;;;;;;;;;1.31;75.06;101121.81;104054;279;96539;-53
2023/05/01 02:44:05;;;;;;;;;;;;;;;1.30;75.21;101116.73;104115;279;97320;-53
2023/05/01 02:46:39;;;;;;;;;;;;;;;1.32;75.20;101115.86;104139;277;122138;-53
2023/05/01 02:49:12;;;;;;;;;;;;;;;1.34;75.16;101116.41;104136;277;106135;-53
2023/05/01 02:51:45;;;;;;;;;;;;;;;1.33;75.25;101114.93;104122;277;114304;-55
2023/05/01 02:54:18;;;;;;;;;;;;;;;1.28;75.18;101113.31;104584;277;93095;-56
2023/05/01 02:56:52;;;;;;;;;;;;;;;1.25;75.14;101113.73;104115;277;97374;-53
2023/05/01 02:59:25;;;;;;;;;;;;;;;1.24;75.17;101108.69;104629;277;120014;-53
2023/05/01 03:01:57;;;;;;;;;;;;;;;1.16;75.20;101107.77;104566;277;104479;-53
2023/05/01 03:04:29;;;;;;;;;;;;;;;1.11;75.32;101114.44;104589;277;113836;-54
2023/05/01 03:07:01;;;;;;;;;;;;;;;1.06;75.30;101115.64;104122;277;92320;-53
2023/05/01 03:09:33;;;;;;;;;;;;;;;1.02;75.42;101114.71;104105;277;97709;-55
2023/05/01 03:12:05;;;;;;;;;;;;;;;1.00;75.49;101115.58;104094;277;121706;-56
2023/05/01 03:14:38;;;;;;;;;;;;;;;0.94;75.67;101113.88;104132;277;105168;-53
2023/05/01 03:17:11;;;;;;;;;;;;;;;0.89;75.66;101116.56;104556;282;114485;-53
2023/05/01 03:19:43;;;;;;;;;;;;;;;0.83;75.84;101119.28;104090;277;92734;-55
2023/05/01 03:22:15;;;;;;;;;;;;;;;0.83;75.87;101116.64;104113;277;97699;-55
2023/05/01 03:24:47;;;;;;;;;;;;;;;0.86;76.10;101113.62;104107;278;122580;-54
2023/05/01 03:27:19;;;;;;;;;;;;;;;0.86;76.16;101112.85;104117;277;105503;-55
2023/05/01 03:29:51;;;;;;;;;;;;;;;0.82;76.25;101114.27;104111;277;113463;-55
2023/05/01 03:32:23;;;;;;;;;;;;;;;0.83;76.35;101115.04;104113;277;93750;-54
2023/05/01 03:34:55;;;;;;;;;;;;;;;0.82;76.52;101114.02;104105;277;97991;-54
2023/05/01 03:37:28;;;;;;;;;;;;;;;0.85;76.63;101113.33;104215;277;121711;-55
2023/05/01 03:40:00;;;;;;;;;;;;;;;0.87;76.67;101107.09;104581;277;105868;-55
2023/05/01 03:42:32;;;;;;;;;;;;;;;0.92;76.73;101106.97;104089;278;114399;-55
2023/05/01 03:45:04;;;;;;;;;;;;;;;0.98;76.88;101110.92;104102;277;94129;-56
2023/05/01 03:47:36;;;;;;;;;;;;;;;1.08;76.84;101114.83;104149;277;96437;-56
2023/05/01 03:50:10;;;;;;;;;;;;;;;1.20;76.97;101115.70;104548;277;121243;-55
2023/05/01 03:52:42;;;;;;;;;;;;;;;1.79;77.10;101110.37;104144;277;104799;-55
2023/05/01 03:55:14;;;;;;;;;;;;;;;2.78;76.53;101106.83;104580;277;113778;-56
2023/05/01 03:57:47;;;;;;;;;;;;;;;2.91;75.84;101106.11;104119;278;96066;-56
2023/05/01 04:00:19;;;;;;;;;;;;;;;3.72;75.68;101104.91;104610;277;97416;-56
2023/05/01 04:02:52;;;;;;;;;;;;;;;5.55;74.93;101100.79;103928;278;120021;-56
2023/05/01 04:05:24;;;;;;;;;;;;;;;7.27;73.38;101096.34;104103;277;104205;-56
2023/05/01 04:07:56;;;;;;;;;;;;;;;7.93;71.81;101090.42;104615;277;114309;-56
2023/05/01 04:10:28;;;;;;;;;;;;;;;7.58;71.74;101095.19;104589;277;94372;-54
2023/05/01 04:13:01;;;;;;;;;;;;;;;7.45;70.75;101098.98;104610;277;97956;-53
2023/05/01 04:15:33;;;;;;;;;;;;;;;7.14;69.88;101102.58;104108;277;122697;-54
2023/05/01 04:18:05;;;;;;;;;;;;;;;7.28;69.68;101101.73;104147;277;105259;-53
2023/05/01 04:20:39;;;;;;;;;;;;;;;7.26;69.57;101095.55;104120;277;114612;-56
2023/05/01 04:23:11;;;;;;;;;;;;;;;7.02;69.28;101096.12;104557;277;93745;-56
2023/05/01 04:25:44;;;;;;;;;;;;;;;7.01;68.60;101099.06;104141;277;96287;-53
2023/05/01 04:28:16;;;;;;;;;;;;;;;7.18;68.03;101097.05;104585;277;121391;-53
2023/05/01 04:30:49;;;;;;;;;;;;;;;7.31;68.00;101095.44;104143;277;105171;-54
2023/05/01 04:33:21;;;;;;;;;;;;;;;7.63;67.85;101096.25;104106;277;113095;-54
2023/05/01 04:35:53;;;;;;;;;;;;;;;8.32;67.43;101091.85;104154;277;92081;-55
2023/05/01 04:38:25;;;;;;;;;;;;;;;9.37;67.25;101090.63;104158;277;97446;-55
2023/05/01 04:40:57;;;;;;;;;;;;;;;11.58;65.94;101083.02;104141;277;121172;-54
2023/05/01 04:43:29;;;;;;;;;;;;;;;13.65;63.93;101081.28;104139;277;105820;-54
2023/05/01 04:46:03;;;;;;;;;;;;;;;15.22;61.98;101077.35;104635;277;113922;-56
2023/05/01 04:48:35;;;;;;;;;;;;;;;16.75;59.33;101071.21;104147;277;95254;-56
2023/05/01 04:51:07;;;;;;;;;;;;;;;17.98;57.25;101070.59;104648;277;97337;-56
2023/05/01 04:53:39;;;;;;;;;;;;;;;19.03;54.49;101065.74;104131;277;122174;-56
2023/05/01 04:56:11;;;;;;;;;;;;;;;20.18;51.24;101062.41;104611;277;105559;-57
2023/05/01 04:58:43;;;;;;;;;;;;;;;20.79;49.28;101061.80;104614;277;114666;-57
2023/05/01 05:01:15;;;;;;;;;;;;;;;21.24;48.30;101065.13;104611;277;94700;-59
2023/05/01 05:03:47;;;;;;;;;;;;;;;22.08;46.25;101060.33;104147;277;97517;-57
2023/05/01 05:06:19;;;;;;;;;;;;;;;22.83;43.67;101052.77;104112;278;120550;-57
2023/05/01 05:08:52;;;;;;;;;;;;;;;23.35;41.94;101055.41;104604;277;106097;-57
2023/05/01 05:11:24;;;;;;;;;;;;;;;23.48;40.73;101054.35;104124;277;115080;-57
2023/05/01 05:13:56;;;;;;;;;;;;;;;23.70;39.10;101056.70;104126;277;94241;-57
2023/05/01 05:16:28;;;;;;;;;;;;;;;23.24;37.77;101051.38;104169;277;96357;-58
2023/05/01 05:19:00;;;;;;;;;;;;;;;21.95;37.28;101056.29;104623;277;121225;-58
2023/05/01 05:21:32;;;;;;;;;;;;;;;21.50;36.99;101061.16;104123;278;105530;-55
2023/05/01 05:24:05;;;;;;;;;;;;;;;21.71;37.11;101056.02;104158;277;113108;-55
2023/05/01 05:26:37;;;;;;;;;;;;;;;22.62;36.58;101051.83;104169;277;93824;-58
2023/05/01 05:29:09;;;;;;;;;;;;;;;23.86;34.97;101053.20;104629;277;96395;-58
2023/05/01 05:31:42;;;;;;;;;;;;;;;24.15;32.53;101051.09;104153;277;121157;-57
2023/05/01 05:34:14;;;;;;;;;;;;;;;24.36;32.63;101048.11;104588;277;105178;-56
2023/05/01 05:36:46;;;;;;;;;;;;;;;24.63;32.66;101043.17;104151;278;114002;-55
2023/05/01 05:39:19;;;;;;;;;;;;;;;25.57;32.25;101046.64;104605;277;94261;-56
2023/05/01 05:41:52;;;;;;;;;;;;;;;26.81;30.82;101041.13;104106;277;96525;-57
2023/05/01 05:44:25;;;;;;;;;;;;;;;26.60;29.80;101040.95;104126;278;122127;-57
2023/05/01 05:46:57;;;;;;;;;;;;;;;26.64;29.12;101038.63;104139;277;105680;-54
2023/05/01 05:49:29;;;;;;;;;;;;;;;27.18;28.46;101041.59;104107;277;114826;-55
2023/05/01 05:52:01;;;;;;;;;;;;;;;27.25;27.84;101044.88;104130;277;95116;-55
2023/05/01 05:54:33;;;;;;;;;;;;;;;27.20;26.59;101045.08;104151;277;96872;-55
2023/05/01 05:57:05;;;;;;;;;;;;;;;27.47;25.96;101052.04;104138;277;122435;-55
2023/05/01 05:59:37;;;;;;;;;;;;;;;27.55;25.91;101044.67;104629;277;105426;-57
2023/05/01 06:02:10;;;;;;;;;;;;;;;27.90;24.93;101043.84;104093;277;114625;-57
2023/05/01 06:04:42;;;;;;;;;;;;;;;28.32;24.43;101047.85;104125;277;95449;-55
2023/05/01 06:07:14;;;;;;;;;;;;;;;28.43;23.56;101044.04;104146;277;95360;-55
2023/05/01 06:09:46;;;;;;;;;;;;;;;28.49;22.96;101046.15;104599;278;122325;-55
2023/05/01 06:12:18;;;;;;;;;;;;;;;28.48;23.02;101043.71;104148;277;105589;-55
2023/05/01 06:14:51;;;;;;;;;;;;;;;28.66;23.64;101047.77;104156;266;113457;-55
2023/05/01 06:17:24;;;;;;;;;;;;;;;29.02;22.59;101050.73;104135;277;95166;-55
2023/05/01 06:19:56;;;;;;;;;;;;;;;29.01;22.67;101050.03;104620;277;98056;-55
2023/05/01 06:22:28;;;;;;;;;;;;;;;29.66;22.62;101048.39;104112;277;121300;-55
2023/05/01 06:25:00;;;;;;;;;;;;;;;30.04;22.41;101050.62;104607;277;104712;-56
2023/05/01 06:27:32;;;;;;;;;;;;;;;30.28;21.74;101054.09;104119;282;113976;-55
2023/05/01 06:30:04;;;;;;;;;;;;;;;30.28;21.33;101051.00;104561;277;93473;-57
2023/05/01 06:32:36;;;;;;;;;;;;;;;30.64;21.08;101051.00;104139;277;96726;-57
2023/05/01 06:35:12;;;;;;;;;;;;;;;30.57;21.16;101048.59;104133;277;121700;-55
2023/05/01 06:37:44;;;;;;;;;;;;;;;30.33;21.06;101055.05;104649;277;105528;-55
2023/05/01 06:40:16;;;;;;;;;;;;;;;30.25;20.46;101059.88;104608;277;114063;-56
2023/05/01 06:42:48;;;;;;;;;;;;;;;30.34;20.00;101054.48;104107;277;94576;-55
2023/05/01 06:45:21;;;;;;;;;;;;;;;30.58;20.47;101050.56;104172;277;97152;-56
2023/05/01 06:47:53;;;;;;;;;;;;;;;30.43;20.60;101051.33;104582;278;122464;-56
2023/05/01 06:50:25;;;;;;;;;;;;;;;30.74;19.42;101052.55;104572;277;106024;-56
2023/05/01 06:52:58;;;;;;;;;;;;;;;30.94;19.02;101049.39;104578;277;114966;-56
2023/05/01 06:55:32;;;;;;;;;;;;;;;30.70;19.09;101046.59;104091;277;94484;-56
2023/05/01 06:58:05;;;;;;;;;;;;;;;30.46;19.16;101046.63;104125;277;97818;-56
2023/05/01 07:00:37;;;;;;;;;;;;;;;29.72;19.51;101045.19;104155;278;121651;-55
2023/05/01 07:03:09;;;;;;;;;;;;;;;28.65;19.74;101039.48;104596;277;105674;-55
2023/05/01 07:05:41;;;;;;;;;;;;;;;27.86;20.14;101046.69;104109;277;115317;-57
2023/05/01 07:08:14;;;;;;;;;;;;;;;27.28;19.91;101044.04;104133;278;94786;-57
2023/05/01 07:10:46;;;;;;;;;;;;;;;27.41;20.89;101044.15;104119;277;97721;-58
2023/05/01 07:13:18;;;;;;;;;;;;;;;28.27;20.53;101045.00;104596;277;122328;-58
2023/05/01 07:15:50;;;;;;;;;;;;;;;28.59;20.48;101042.95;104135;277;105885;-56
2023/05/01 07:18:22;;;;;;;;;;;;;;;29.20;20.61;101038.40;104108;277;114170;-54
2023/05/01 07:20:55;;;;;;;;;;;;;;;29.66;20.24;101037.80;104113;277;92518;-54
2023/05/01 07:23:27;;;;;;;;;;;;;;;29.84;19.80;101039.23;104615;278;96870;-54
2023/05/01 07:25:59;;;;;;;;;;;;;;;29.76;19.76;101037.42;104116;277;121019;-54
2023/05/01 07:28:32;;;;;;;;;;;;;;;29.16;20.02;101036.17;104600;277;106467;-55
2023/05/01 07:31:04;;;;;;;;;;;;;;;29.35;20.13;101038.38;104117;277;113921;-55
2023/05/01 07:33:36;;;;;;;;;;;;;;;29.76;19.77;101039.88;104095;278;95318;-55
2023/05/01 07:36:08;;;;;;;;;;;;;;;29.97;19.96;101046.55;104143;277;97827;-54
2023/05/01 07:38:41;;;;;;;;;;;;;;;30.13;19.75;101039.82;104126;278;121485;-54
2023/05/01 07:41:13;;;;;;;;;;;;;;;29.54;19.79;101040.41;104146;277;105749;-56
2023/05/01 07:43:45;;;;;;;;;;;;;;;29.33;19.53;101040.59;104095;277;113309;-57
2023/05/01 07:46:17;;;;;;;;;;;;;;;29.74;19.56;101038.41;104131;277;93198;-56
2023/05/01 07:48:49;;;;;;;;;;;;;;;29.64;19.40;101038.98;104141;277;96302;-55
2023/05/01 07:51:22;;;;;;;;;;;;;;;29.50;18.94;101039.81;104146;277;122344;-55
2023/05/01 07:53:54;;;;;;;;;;;;;;;29.07;19.50;101033.70;104573;278;105686;-56
2023/05/01 07:56:26;;;;;;;;;;;;;;;29.11;19.87;101033.22;104121;277;115095;-56
2023/05/01 07:58:58;;;;;;;;;;;;;;;29.20;19.81;101030.66;104160;277;95123;-57
2023/05/01 08:01:32;;;;;;;;;;;;;;;29.15;20.00;101034.63;104136;277;98135;-57
2023/05/01 08:04:05;;;;;;;;;;;;;;;29.24;19.85;101034.67;103959;277;121968;-56
2023/05/01 08:06:37;;;;;;;;;;;;;;;29.22;20.01;101035.10;104147;277;105376;-55
2023/05/01 08:09:09;;;;;;;;;;;;;;;29.38;20.00;101036.35;104609;277;115369;-62
2023/05/01 08:11:41;;;;;;;;;;;;;;;29.61;19.85;101037.98;104606;277;94405;-63
2023/05/01 08:14:14;;;;;;;;;;;;;;;28.68;20.03;101035.14;104634;277;96853;-64
2023/05/01 08:16:46;;;;;;;;;;;;;;;28.33;20.30;101035.63;104136;277;122188;-62
2023/05/01 08:19:18;;;;;;;;;;;;;;;28.80;20.53;101036.19;104687;277;106500;-61
2023/05/01 08:21:50;;;;;;;;;;;;;;;28.95;20.28;101034.45;104137;277;113357;-55
2023/05/01 08:24:22;;;;;;;;;;;;;;;29.06;19.38;101031.45;104613;269;94331;-54
2023/05/01 08:26:55;;;;;;;;;;;;;;;28.84;19.81;101029.96;104153;277;98339;-53
2023/05/01 08:29:27;;;;;;;;;;;;;;;28.94;19.96;101035.08;104128;277;121367;-54
2023/05/01 08:32:00;;;;;;;;;;;;;;;29.14;19.91;101036.23;104623;277;105499;-55
2023/05/01 08:34:32;;;;;;;;;;;;;;;29.10;20.15;101037.12;104160;277;114640;-57
2023/05/01 08:37:04;;;;;;;;;;;;;;;28.95;20.29;101036.69;104628;277;94995;-57
2023/05/01 08:39:36;;;;;;;;;;;;;;;28.93;20.27;101032.27;104641;277;97679;-61
2023/05/01 08:42:08;;;;;;;;;;;;;;;28.92;20.35;101032.20;104164;277;122261;-60
2023/05/01 08:44:41;;;;;;;;;;;;;;;28.71;20.33;101031.16;104149;277;105182;-69
2023/05/01 08:47:16;;;;;;;;;;;;;;;28.93;20.32;101027.69;104120;277;114598;-62
2023/05/01 08:49:51;;;;;;;;;;;;;;;28.80;20.25;101027.13;104174;277;93854;-62
2023/05/01 08:52:24;;;;;;;;;;;;;;;28.73;20.56;101026.62;104197;277;96596;-59
2023/05/01 08:54:57;;;;;;;;;;;;;;;29.20;20.18;101030.33;104617;277;121556;-57
2023/05/01 08:57:30;;;;;;;;;;;;;;;28.89;19.95;101027.35;104155;277;105337;-57
2023/05/01 09:00:04;;;;;;;;;;;;;;;28.91;20.25;101030.23;104188;277;112203;-56
2023/05/01 09:02:37;;;;;;;;;;;;;;;28.77;20.34;101026.09;104226;277;94193;-56
2023/05/01 09:05:10;;;;;;;;;;;;;;;28.62;19.67;101027.02;104208;277;97806;-54
2023/05/01 09:07:44;;;;;;;;;;;;;;;28.39;19.70;101024.05;104636;277;121974;-54
2023/05/01 09:10:18;;;;;;;;;;;;;;;28.23;19.68;101021.10;103979;279;106237;-55
2023/05/01 09:12:56;;;;;;;;;;;;;;;27.90;20.42;101018.77;104647;282;115197;-55
2023/05/01 09:15:30;;;;;;;;;;;;;;;27.58;20.40;101014.71;104138;277;93323;-57
2023/05/01 09:18:02;;;;;;;;;;;;;;;26.95;20.24;101017.08;104157;277;96829;-56
2023/05/01 09:20:36;;;;;;;;;;;;;;;26.16;20.86;101014.91;104633;277;120653;-57
2023/05/01 09:23:09;;;;;;;;;;;;;;;25.58;21.24;101020.04;104154;278;103374;-58
2023/05/01 09:25:41;;;;;;;;;;;;;;;25.07;21.14;101015.75;104601;277;112963;-55
2023/05/01 09:28:14;;;;;;;;;;;;;;;24.33;22.09;101011.08;103737;277;554722;-55
2023/05/01 09:30:45;;;;;;;;;;;;;;;24.01;22.68;101009.59;104180;277;98900;-57
2023/05/01 09:33:18;;;;;;;;;;;;;;;23.73;22.52;101005.79;104161;277;120003;-56
2023/05/01 09:35:54;;;;;;;;;;;;;;;23.21;22.98;101004.88;104607;270;104512;-58
2023/05/01 09:38:27;;;;;;;;;;;;;;;23.05;23.55;101005.70;104631;277;114414;-58
2023/05/01 09:41:06;;;;;;;;;;;;;;;23.01;23.12;101003.41;104180;277;94732;-58
2023/05/01 09:43:38;;;;;;;;;;;;;;;22.83;23.62;100997.01;104616;277;97835;-59
2023/05/01 09:46:11;;;;;;;;;;;;;;;22.93;24.27;100991.78;104196;277;121766;-58
2023/05/01 09:48:52;;;;;;;;;;;;;;;22.98;23.92;100994.70;104192;277;105378;-58
2023/05/01 09:51:26;;;;;;;;;;;;;;;22.70;24.12;100985.08;104613;266;115172;-57
2023/05/01 09:54:00;;;;;;;;;;;;;;;22.43;24.50;100991.77;104140;277;97014;-57
2023/05/01 09:56:33;;;;;;;;;;;;;;;22.22;24.41;100992.49;104628;278;97542;-58
2023/05/01 09:59:18;;;;;;;;;;;;;;;21.86;24.13;100993.41;104161;277;119997;-58
2023/05/01 10:01:51;;;;;;;;;;;;;;;21.54;24.48;100993.55;104141;277;105323;-56
2023/05/01 10:04:33;;;;;;;;;;;;;;;21.39;24.35;100987.21;104109;277;113692;-56
2023/05/01 10:07:14;;;;;;;;;;;;;;;20.87;24.48;100987.45;104116;277;94974;-58
2023/05/01 10:09:46;;;;;;;;;;;;;;;20.84;25.07;100984.91;104158;277;97212;-57
2023/05/01 10:12:26;;;;;;;;;;;;;;;20.96;25.60;100981.87;104171;277;121589;-57
2023/05/01 10:14:59;;;;;;;;;;;;;;;21.04;25.11;100983.98;104645;277;106009;-57
2023/05/01 10:17:31;;;;;;;;;;;;;;;20.85;25.13;100975.81;104141;278;114758;-58
2023/05/01 10:20:04;;;;;;;;;;;;;;;20.65;24.73;100973.42;104128;277;93546;-55
2023/05/01 10:22:36;;;;;;;;;;;;;;;20.47;24.53;100967.85;104630;277;98165;-56
2023/05/01 10:25:12;;;;;;;;;;;;;;;20.60;25.23;100973.73;104147;277;120999;-58
2023/05/01 10:27:45;;;;;;;;;;;;;;;20.70;25.17;100965.39;104612;277;104789;-58
2023/05/01 10:30:17;;;;;;;;;;;;;;;20.66;25.20;100964.31;104141;277;114862;-56
2023/05/01 10:32:50;;;;;;;;;;;;;;;20.51;25.18;100955.82;104173;277;93353;-56
2023/05/01 10:35:25;;;;;;;;;;;;;;;20.62;25.39;100950.61;104153;277;98200;-56
2023/05/01 10:38:01;;;;;;;;;;;;;;;20.94;25.41;100950.25;104622;277;121367;-56
2023/05/01 10:40:48;;;;;;;;;;;;;;;21.07;24.75;100943.70;104115;277;104733;-56
2023/05/01 10:43:27;;;;;;;;;;;;;;;20.76;24.62;100941.23;104109;277;114239;-56
2023/05/01 10:46:28;;;;;;;;;;;;;;;20.88;24.24;100952.53;104104;277;95343;-56
2023/05/01 10:49:01;;;;;;;;;;;;;;;20.76;23.97;100952.55;104140;277;98059;-56
2023/05/01 10:51:33;;;;;;;;;;;;;;;20.63;23.97;100949.47;104090;277;122166;-56
2023/05/01 10:54:26;;;;;;;;;;;;;;;20.58;24.62;100940.60;104115;277;105762;-57
2023/05/01 10:57:00;;;;;;;;;;;;;;;20.42;24.09;100938.77;104589;277;113508;-55
2023/05/01 10:59:53;;;;;;;;;;;;;;;20.29;23.79;100937.37;104561;277;94945;-55
2023/05/01 11:02:26;;;;;;;;;;;;;;;20.33;24.32;100929.65;104133;277;97560;-56
2023/05/01 11:04:58;;;;;;;;;;;;;;;20.54;25.21;100927.93;104126;277;121798;-55
2023/05/01 11:07:32;;;;;;;;;;;;;;;20.65;25.67;100925.80;104607;277;105813;-55
2023/05/01 11:10:24;;;;;;;;;;;;;;;20.41;25.50;100923.13;104574;277;114536;-55
2023/05/01 11:12:56;;;;;;;;;;;;;;;20.22;25.55;100923.30;104083;278;93913;-55
2023/05/01 11:15:33;;;;;;;;;;;;;;;20.21;25.47;100918.75;104157;277;97686;-55
2023/05/01 11:18:06;;;;;;;;;;;;;;;19.87;24.40;100913.67;104112;277;121284;-54
2023/05/01 11:20:51;;;;;;;;;;;;;;;19.49;24.19;100907.52;104163;277;103934;-56
2023/05/01 11:23:24;;;;;;;;;;;;;;;19.46;24.54;100907.49;104575;278;114920;-56
2023/05/01 11:26:05;;;;;;;;;;;;;;;19.52;24.29;100903.39;104122;277;93826;-56
2023/05/01 11:28:38;;;;;;;;;;;;;;;19.52;23.95;100900.91;104161;277;96491;-57
2023/05/01 11:31:11;;;;;;;;;;;;;;;19.58;24.51;100895.61;104133;277;121850;-55
2023/05/01 11:33:43;;;;;;;;;;;;;;;19.59;24.31;100897.73;104574;277;105518;-55
2023/05/01 11:36:15;;;;;;;;;;;;;;;19.52;24.53;100895.92;104581;277;113079;-57
2023/05/01 11:38:55;;;;;;;;;;;;;;;19.45;25.12;100892.79;104606;278;94080;-57
2023/05/01 11:41:27;;;;;;;;;;;;;;;19.53;25.63;100889.46;104144;277;97901;-55
2023/05/01 11:44:00;;;;;;;;;;;;;;;19.54;25.61;100881.55;104108;277;123162;-54
2023/05/01 11:46:33;;;;;;;;;;;;;;;19.50;25.46;100877.70;104125;278;105945;-56
2023/05/01 11:49:07;;;;;;;;;;;;;;;19.35;25.64;100877.70;104104;278;115490;-56
2023/05/01 11:51:39;;;;;;;;;;;;;;;19.35;24.86;100875.04;104574;277;95075;-56
2023/05/01 11:54:13;;;;;;;;;;;;;;;19.18;24.40;100870.58;104160;269;96996;-57
2023/05/01 11:56:45;;;;;;;;;;;;;;;18.93;24.50;100867.26;104147;277;122291;-54
2023/05/01 11:59:17;;;;;;;;;;;;;;;18.84;24.99;100866.16;104130;278;105543;-54
2023/05/01 12:01:50;;;;;;;;;;;;;;;18.89;25.54;100864.58;104592;277;113667;-55
2023/05/01 12:04:27;;;;;;;;;;;;;;;19.02;25.77;100863.17;104108;277;93589;-56
2023/05/01 12:07:00;;;;;;;;;;;;;;;19.09;25.07;100856.86;104102;297;97547;-56
2023/05/01 12:09:32;;;;;;;;;;;;;;;19.08;25.21;100855.53;104124;277;121945;-54
2023/05/01 12:12:04;;;;;;;;;;;;;;;18.91;24.84;100860.14;104141;277;105265;-54
2023/05/01 12:14:36;;;;;;;;;;;;;;;18.66;24.85;100857.77;104138;277;114426;-55
2023/05/01 12:17:10;;;;;;;;;;;;;;;18.61;25.08;100852.45;104651;277;94326;-56
2023/05/01 12:19:53;;;;;;;;;;;;;;;18.56;25.46;100846.63;104158;277;97940;-58
2023/05/01 12:22:25;;;;;;;;;;;;;;;18.71;25.80;100843.14;104610;277;121623;-58
2023/05/01 12:24:57;;;;;;;;;;;;;;;18.73;25.55;100843.88;104119;277;104923;-56
2023/05/01 12:27:29;;;;;;;;;;;;;;;18.54;25.38;100838.70;104121;277;113734;-57
2023/05/01 12:30:01;;;;;;;;;;;;;;;18.45;25.87;100835.13;104148;277;95078;-56
2023/05/01 12:32:34;;;;;;;;;;;;;;;18.40;25.86;100833.20;104611;278;97545;-56
2023/05/01 12:35:16;;;;;;;;;;;;;;;18.24;25.85;100831.89;104634;277;122039;-55
2023/05/01 12:37:48;;;;;;;;;;;;;;;18.28;26.29;100824.73;104605;277;105615;-55
2023/05/01 12:40:21;;;;;;;;;;;;;;;18.33;26.34;100821.05;104114;277;113606;-58
2023/05/01 12:43:02;;;;;;;;;;;;;;;18.26;26.43;100822.87;104607;277;95237;-57
2023/05/01 12:45:40;;;;;;;;;;;;;;;18.15;26.36;100813.02;104634;277;97087;-55
2023/05/01 12:48:14;;;;;;;;;;;;;;;18.18;26.40;100813.77;104190;278;121613;-55
2023/05/01 12:50:53;;;;;;;;;;;;;;;18.17;26.21;100807.11;104110;277;103716;-54
2023/05/01 12:53:26;;;;;;;;;;;;;;;18.22;26.62;100808.43;104587;277;114936;-55
2023/05/01 12:56:02;;;;;;;;;;;;;;;18.19;26.54;100805.39;104126;277;94558;-55
2023/05/01 12:58:40;;;;;;;;;;;;;;;18.22;26.59;100804.21;104136;277;98383;-54
2023/05/01 13:01:13;;;;;;;;;;;;;;;18.15;25.95;100804.77;104157;277;122129;-56
2023/05/01 13:03:46;;;;;;;;;;;;;;;18.04;25.96;100801.66;104023;278;105941;-55
2023/05/01 13:06:18;;;;;;;;;;;;;;;17.87;25.91;100795.77;104118;278;114329;-57